createdAt,value
2022-11-14T00:04:29.255Z,2.35
2022-11-14T00:09:34.537Z,2.13
2022-11-14T00:14:37.828Z,2.04
2022-11-14T00:19:41.180Z,1.93
2022-11-14T00:24:46.079Z,1.92
2022-11-14T00:29:49.292Z,1.81
2022-11-14T00:34:52.656Z,1.81
2022-11-14T00:39:57.459Z,1.84
2022-11-14T00:45:00.750Z,1.82
2022-11-14T00:50:04.351Z,1.82
2022-11-14T00:55:10.370Z,1.83
2022-11-14T01:00:16.349Z,1.85
2022-11-14T01:05:19.695Z,1.87
2022-11-14T01:10:24.711Z,1.95
2022-11-14T01:15:27.992Z,1.91
2022-11-14T01:20:31.332Z,1.87
2022-11-14T01:25:36.541Z,1.90
2022-11-14T01:30:40.440Z,1.82
2022-11-14T01:35:43.797Z,1.71
2022-11-14T01:40:48.637Z,1.74
2022-11-14T01:45:56.363Z,1.77
2022-11-14T01:51:03.591Z,1.52
2022-11-14T01:56:11.561Z,1.60
2022-11-14T02:01:15.113Z,1.51
2022-11-14T02:06:22.473Z,1.57
2022-11-14T02:11:30.237Z,1.50
2022-11-14T02:16:33.586Z,1.38
2022-11-14T02:21:38.410Z,1.46
2022-11-14T02:26:42.854Z,1.51
2022-11-14T02:31:46.445Z,1.47
2022-11-14T02:36:51.202Z,1.55
2022-11-14T02:41:54.329Z,1.49
2022-11-14T02:46:57.531Z,1.46
2022-11-14T02:52:02.426Z,1.45
2022-11-14T02:57:05.931Z,1.38
2022-11-14T03:02:09.313Z,1.42
2022-11-14T03:07:14.295Z,1.40
2022-11-14T03:12:19.083Z,1.21
2022-11-14T03:17:24.674Z,1.33
2022-11-14T03:22:29.244Z,1.43
2022-11-14T03:27:32.821Z,1.32
2022-11-14T03:32:36.093Z,1.31
2022-11-14T03:37:41.043Z,1.24
2022-11-14T03:42:44.377Z,1.21
2022-11-14T03:47:47.667Z,1.11
2022-11-14T03:52:52.616Z,1.12
2022-11-14T03:57:56.055Z,1.12
2022-11-14T04:02:59.391Z,1.09
2022-11-14T04:08:06.227Z,1.04
2022-11-14T04:13:10.220Z,1.01
2022-11-14T04:18:13.802Z,0.99
2022-11-14T04:23:18.810Z,0.90
2022-11-14T04:28:22.219Z,0.75
2022-11-14T04:33:25.643Z,0.63
2022-11-14T04:38:30.655Z,0.66
2022-11-14T04:43:34.254Z,0.56
2022-11-14T04:48:37.773Z,0.35
2022-11-14T04:53:42.590Z,0.49
2022-11-14T04:58:45.582Z,0.41
2022-11-14T05:03:48.928Z,0.22
2022-11-14T05:08:53.590Z,0.22
2022-11-14T05:13:57.065Z,0.04
2022-11-14T05:19:00.676Z,-0.18
2022-11-14T05:24:05.790Z,-0.23
2022-11-14T05:29:09.728Z,-0.33
2022-11-14T05:34:13.049Z,-0.33
2022-11-14T05:39:18.243Z,-0.42
2022-11-14T05:44:21.546Z,-0.37
2022-11-14T05:49:25.465Z,-0.33
2022-11-14T05:54:30.345Z,-0.30
2022-11-14T05:59:33.610Z,1.46
2022-11-14T06:04:37.179Z,2.66
2022-11-14T06:09:42.082Z,3.85
2022-11-14T06:14:45.261Z,3.47
2022-11-14T06:19:48.725Z,2.42
2022-11-14T06:24:53.546Z,1.79
2022-11-14T06:29:56.711Z,1.81
2022-11-14T06:35:00.180Z,4.86
2022-11-14T06:40:05.483Z,11.68
2022-11-14T06:45:09.917Z,15.02
2022-11-14T06:50:13.603Z,16.62
2022-11-14T06:55:23.922Z,19.02
2022-11-14T07:00:28.582Z,20.54
2022-11-14T07:05:32.059Z,21.82
2022-11-14T07:10:37.106Z,22.58
2022-11-14T07:15:40.561Z,23.41
2022-11-14T07:20:44.145Z,22.75
2022-11-14T07:25:49.453Z,23.25
2022-11-14T07:30:53.024Z,24.10
2022-11-14T07:35:56.459Z,23.42
2022-11-14T07:41:02.540Z,23.00
2022-11-14T07:46:08.156Z,24.01
2022-11-14T07:51:16.972Z,23.22
2022-11-14T07:56:22.638Z,23.18
2022-11-14T08:01:26.178Z,23.74
2022-11-14T08:06:29.589Z,22.79
2022-11-14T08:11:53.885Z,22.80
2022-11-14T08:16:57.149Z,22.03
2022-11-14T08:22:00.874Z,21.88
2022-11-14T08:27:05.852Z,20.09
2022-11-14T08:32:09.146Z,17.61
2022-11-14T08:37:12.660Z,16.04
2022-11-14T08:42:17.461Z,13.77
2022-11-14T08:47:21.339Z,12.43
2022-11-14T08:52:25.569Z,10.42
2022-11-14T08:57:31.245Z,8.50
2022-11-14T09:02:35.320Z,7.25
2022-11-14T09:07:39.327Z,6.23
2022-11-14T09:12:44.027Z,5.61
2022-11-14T09:17:49.117Z,4.92
2022-11-14T09:22:53.594Z,4.25
2022-11-14T09:27:59.154Z,4.16
2022-11-14T09:33:08.420Z,4.10
2022-11-14T09:38:14.822Z,3.96
2022-11-14T09:43:35.895Z,3.91
2022-11-14T09:48:39.608Z,3.74
2022-11-14T09:53:49.599Z,3.81
2022-11-14T09:58:56.063Z,3.58
2022-11-14T10:04:09.453Z,3.46
2022-11-14T10:09:45.413Z,3.33
2022-11-14T10:15:11.909Z,3.30
2022-11-14T10:20:21.941Z,3.15
2022-11-14T10:25:27.917Z,3.07
2022-11-14T10:30:40.596Z,2.98
2022-11-14T10:35:47.171Z,2.87
2022-11-14T10:40:54.143Z,2.92
2022-11-14T10:46:05.201Z,2.97
2022-11-14T10:51:13.950Z,2.96
2022-11-14T10:56:17.566Z,3.03
2022-11-14T11:01:40.146Z,3.13
2022-11-14T11:06:43.637Z,2.97
2022-11-14T11:11:57.666Z,2.91
2022-11-14T11:17:33.287Z,2.80
2022-11-14T11:22:40.340Z,2.72
2022-11-14T11:27:44.116Z,2.65
2022-11-14T11:32:48.760Z,2.60
2022-11-14T11:37:57.578Z,2.56
2022-11-14T11:43:37.437Z,2.49
2022-11-14T11:48:38.646Z,2.43
2022-11-14T11:53:46.381Z,2.36
2022-11-14T11:58:51.811Z,2.22
2022-11-14T12:03:56.714Z,2.21
2022-11-14T12:09:06.195Z,2.15
2022-11-14T12:14:43.365Z,2.07
2022-11-14T12:20:05.874Z,2.15
2022-11-14T12:25:38.914Z,2.05
2022-11-14T12:30:48.382Z,2.00
2022-11-14T12:35:56.414Z,2.05
2022-11-14T12:41:01.863Z,2.06
2022-11-14T12:46:06.553Z,2.07
2022-11-14T12:51:42.833Z,2.13
2022-11-14T12:57:00.285Z,1.95
2022-11-14T13:02:46.264Z,1.84
2022-11-14T13:08:04.774Z,1.60
2022-11-14T13:13:29.638Z,1.49
2022-11-14T13:18:51.014Z,1.31
2022-11-14T13:23:58.608Z,1.16
2022-11-14T13:29:03.341Z,1.03
2022-11-14T13:34:33.762Z,0.88
2022-11-14T13:39:46.966Z,0.79
2022-11-14T13:45:13.440Z,0.67
2022-11-14T13:50:19.014Z,0.62
2022-11-14T13:55:25.029Z,0.50
2022-11-14T14:00:51.492Z,0.40
2022-11-14T14:06:19.173Z,0.28
2022-11-14T14:11:42.739Z,0.27
2022-11-14T14:16:55.462Z,0.22
2022-11-14T14:22:07.374Z,0.15
2022-11-14T14:27:20.837Z,0.08
2022-11-14T14:32:26.458Z,-0.03
2022-11-14T14:37:30.995Z,-0.08
2022-11-14T14:42:39.288Z,-0.02
2022-11-14T14:47:45.569Z,0.21
2022-11-14T14:52:57.623Z,0.50
2022-11-14T14:58:19.519Z,0.72
2022-11-14T15:03:35.583Z,0.74
2022-11-14T15:08:40.527Z,0.97
2022-11-14T15:13:44.789Z,1.09
2022-11-14T15:18:50.989Z,1.14
2022-11-14T15:24:03.172Z,1.23
2022-11-14T15:29:08.306Z,1.22
2022-11-14T15:34:26.690Z,1.33
2022-11-14T15:39:30.351Z,1.31
2022-11-14T15:44:35.789Z,1.33
2022-11-14T15:49:40.933Z,1.37
2022-11-14T15:54:44.506Z,1.40
2022-11-14T15:59:48.108Z,1.49
2022-11-14T16:04:54.780Z,1.58
2022-11-14T16:09:58.173Z,1.63
2022-11-14T16:15:01.494Z,1.65
2022-11-14T16:20:16.422Z,1.61
2022-11-14T16:25:22.242Z,1.65
2022-11-14T16:30:27.528Z,1.64
2022-11-14T16:35:32.375Z,1.60
2022-11-14T16:40:35.549Z,1.61
2022-11-14T16:45:41.616Z,1.54
2022-11-14T16:50:46.615Z,1.62
2022-11-14T16:55:49.633Z,1.68
2022-11-14T17:00:53.135Z,1.59
2022-11-14T17:05:58.001Z,1.67
2022-11-14T17:11:01.204Z,1.73
2022-11-14T17:16:05.906Z,1.63
2022-11-14T17:21:13.509Z,1.66
2022-11-14T17:26:17.716Z,1.67
2022-11-14T17:31:21.794Z,1.64
2022-11-14T17:36:28.549Z,1.58
2022-11-14T17:41:31.912Z,1.62
2022-11-14T17:46:36.134Z,1.66
2022-11-14T17:51:40.939Z,1.72
2022-11-14T17:56:49.633Z,1.67
2022-11-14T18:01:56.257Z,1.58
2022-11-14T18:07:01.288Z,1.67
2022-11-14T18:12:04.620Z,1.55
2022-11-14T18:17:13.137Z,1.57
2022-11-14T18:22:18.235Z,1.70
2022-11-14T18:27:22.393Z,1.63
2022-11-14T18:32:25.950Z,1.53
2022-11-14T18:37:32.864Z,1.69
2022-11-14T18:42:36.135Z,1.60
2022-11-14T18:47:39.774Z,1.64
2022-11-14T18:52:44.524Z,1.72
2022-11-14T18:57:48.119Z,1.69
2022-11-14T19:02:51.965Z,1.72
2022-11-14T19:07:56.693Z,1.70
2022-11-14T19:13:00.010Z,1.67
2022-11-14T19:18:03.266Z,1.70
2022-11-14T19:23:08.011Z,1.69
2022-11-14T19:28:11.271Z,1.71
2022-11-14T19:33:14.275Z,1.74
2022-11-14T19:38:19.090Z,1.85
2022-11-14T19:43:22.730Z,1.85
2022-11-14T19:48:25.847Z,1.90
2022-11-14T19:53:30.619Z,1.81
2022-11-14T19:58:36.486Z,1.86
2022-11-14T20:03:39.866Z,1.82
2022-11-14T20:08:44.596Z,1.89
2022-11-14T20:13:48.042Z,1.83
2022-11-14T20:18:58.597Z,1.90
2022-11-14T20:24:03.832Z,1.93
2022-11-14T20:29:07.461Z,1.83
2022-11-14T20:34:11.663Z,1.90
2022-11-14T20:39:16.306Z,1.94
2022-11-14T20:44:20.113Z,1.97
2022-11-14T20:49:23.477Z,1.99
2022-11-14T20:54:28.127Z,1.92
2022-11-14T20:59:31.606Z,1.88
2022-11-14T21:04:34.701Z,1.88
2022-11-14T21:09:39.159Z,1.90
2022-11-14T21:14:42.154Z,1.90
2022-11-14T21:19:45.285Z,1.78
2022-11-14T21:24:49.878Z,1.83
2022-11-14T21:29:55.160Z,1.87
2022-11-14T21:34:58.160Z,1.89
2022-11-14T21:40:02.792Z,1.87
2022-11-14T21:45:07.360Z,1.87
2022-11-14T21:50:10.788Z,1.86
2022-11-14T21:55:15.420Z,1.86
2022-11-14T22:00:18.749Z,1.81
2022-11-14T22:05:21.845Z,1.83
2022-11-14T22:10:26.239Z,1.76
2022-11-14T22:15:29.437Z,1.70
2022-11-14T22:20:32.530Z,1.73
2022-11-14T22:25:36.982Z,1.71
2022-11-14T22:30:41.000Z,1.64
2022-11-14T22:35:44.166Z,1.59
2022-11-14T22:40:48.623Z,1.64
2022-11-14T22:45:52.358Z,1.62
2022-11-14T22:50:59.108Z,1.64
2022-11-14T22:56:04.513Z,1.58
2022-11-14T23:01:12.413Z,1.55
2022-11-14T23:06:16.273Z,1.50
2022-11-14T23:11:21.194Z,1.52
2022-11-14T23:16:25.802Z,1.47
2022-11-14T23:21:30.751Z,1.55
2022-11-14T23:26:35.802Z,1.52
2022-11-14T23:31:39.088Z,1.50
2022-11-14T23:36:42.717Z,1.54
2022-11-14T23:41:47.130Z,1.60
2022-11-14T23:46:50.425Z,1.56
2022-11-14T23:51:53.841Z,1.52
2022-11-14T23:57:03.897Z,1.51
